Marysville, California
Current Conditions -  °F | °C
As of 10:53 AM on Saturday 25 Oct 2014 (Local Time) from KMYV Reporting Station
Few Clouds Few Clouds  
Wind Chill: 60°   Ceiling: Unl
Heat Index: 60°   Visibility: 10mi
Dew Point: 55°   Wind: 15mph
Humidity: 83%   Direction: 170°S
Pressure: 30.02"   Gusts: NA
Location:  39.15°N, 121.58°W
Report Text: KMYV 251753Z AUTO 17013KT 10SM FEW025 16/13 A3002 RMK AO2 RAE00 SLP167 P0000 60010 T01560128 10178 20150 51018 $
Loading
Personal Weather Stations






























Interactive Weather Map
Tropical Storm Tracking
New forecast layout! Learn more

10-Day Weather Forecast

Advertisements
Track Severe Weather on mobile